sensor_id;sensor_type;location;lat;lon;timestamp;temperature;humidity
58993;DHT22;44782;0.000;0.000;2023-02-13T00:00:23;18.20;50.30
58993;DHT22;44782;0.000;0.000;2023-02-13T00:02:39;18.10;50.20
58993;DHT22;44782;0.000;0.000;2023-02-13T00:04:55;18.10;50.30
58993;DHT22;44782;0.000;0.000;2023-02-13T00:07:11;18.10;50.30
58993;DHT22;44782;0.000;0.000;2023-02-13T00:09:27;18.10;50.20
58993;DHT22;44782;0.000;0.000;2023-02-13T00:11:45;18.10;50.20
58993;DHT22;44782;0.000;0.000;2023-02-13T00:14:01;18.00;50.20
58993;DHT22;44782;0.000;0.000;2023-02-13T00:16:17;18.00;50.20
58993;DHT22;44782;0.000;0.000;2023-02-13T00:18:35;18.00;50.20
58993;DHT22;44782;0.000;0.000;2023-02-13T00:20:59;18.00;50.10
58993;DHT22;44782;0.000;0.000;2023-02-13T00:23:14;18.00;49.80
58993;DHT22;44782;0.000;0.000;2023-02-13T00:25:30;18.00;50.00
58993;DHT22;44782;0.000;0.000;2023-02-13T00:27:45;18.00;50.00
58993;DHT22;44782;0.000;0.000;2023-02-13T00:30:03;18.00;49.90
58993;DHT22;44782;0.000;0.000;2023-02-13T00:32:19;18.00;49.90
58993;DHT22;44782;0.000;0.000;2023-02-13T00:34:34;18.00;49.90
58993;DHT22;44782;0.000;0.000;2023-02-13T00:36:50;18.00;49.80
58993;DHT22;44782;0.000;0.000;2023-02-13T00:39:09;18.00;49.80
58993;DHT22;44782;0.000;0.000;2023-02-13T00:41:25;18.00;49.70
58993;DHT22;44782;0.000;0.000;2023-02-13T00:43:41;18.00;49.70
58993;DHT22;44782;0.000;0.000;2023-02-13T00:45:57;18.00;49.60
58993;DHT22;44782;0.000;0.000;2023-02-13T00:48:15;18.00;49.60
58993;DHT22;44782;0.000;0.000;2023-02-13T00:50:31;18.00;49.60
58993;DHT22;44782;0.000;0.000;2023-02-13T00:52:47;18.10;49.60
58993;DHT22;44782;0.000;0.000;2023-02-13T00:55:02;18.00;49.50
58993;DHT22;44782;0.000;0.000;2023-02-13T00:57:18;18.10;49.50
58993;DHT22;44782;0.000;0.000;2023-02-13T00:59:34;18.00;49.40
58993;DHT22;44782;0.000;0.000;2023-02-13T01:01:49;18.10;49.40
58993;DHT22;44782;0.000;0.000;2023-02-13T01:04:05;18.10;49.40
58993;DHT22;44782;0.000;0.000;2023-02-13T01:06:21;18.10;49.30
58993;DHT22;44782;0.000;0.000;2023-02-13T01:08:40;18.10;49.30
58993;DHT22;44782;0.000;0.000;2023-02-13T01:10:56;18.10;49.10
58993;DHT22;44782;0.000;0.000;2023-02-13T01:13:13;18.10;49.20
58993;DHT22;44782;0.000;0.000;2023-02-13T01:15:30;18.00;49.10
58993;DHT22;44782;0.000;0.000;2023-02-13T01:17:47;18.10;49.10
58993;DHT22;44782;0.000;0.000;2023-02-13T01:20:02;18.00;49.00
58993;DHT22;44782;0.000;0.000;2023-02-13T01:22:18;18.00;49.00
58993;DHT22;44782;0.000;0.000;2023-02-13T01:24:34;18.10;49.00
58993;DHT22;44782;0.000;0.000;2023-02-13T01:26:49;18.00;48.90
58993;DHT22;44782;0.000;0.000;2023-02-13T01:29:05;18.10;48.90
58993;DHT22;44782;0.000;0.000;2023-02-13T01:31:21;18.10;48.90
58993;DHT22;44782;0.000;0.000;2023-02-13T01:33:37;18.10;48.90
58993;DHT22;44782;0.000;0.000;2023-02-13T01:35:53;18.00;48.80
58993;DHT22;44782;0.000;0.000;2023-02-13T01:38:08;18.00;48.80
58993;DHT22;44782;0.000;0.000;2023-02-13T01:40:24;18.00;48.80
58993;DHT22;44782;0.000;0.000;2023-02-13T01:42:44;18.00;48.80
58993;DHT22;44782;0.000;0.000;2023-02-13T01:45:03;18.00;48.80
58993;DHT22;44782;0.000;0.000;2023-02-13T01:47:30;18.00;48.70
58993;DHT22;44782;0.000;0.000;2023-02-13T01:49:49;18.00;48.30
58993;DHT22;44782;0.000;0.000;2023-02-13T01:52:07;18.00;48.70
58993;DHT22;44782;0.000;0.000;2023-02-13T01:54:26;18.00;48.60
58993;DHT22;44782;0.000;0.000;2023-02-13T01:56:49;18.00;48.60
58993;DHT22;44782;0.000;0.000;2023-02-13T01:59:09;18.00;48.50
58993;DHT22;44782;0.000;0.000;2023-02-13T02:01:27;18.00;48.50
58993;DHT22;44782;0.000;0.000;2023-02-13T02:05:59;18.00;48.50
58993;DHT22;44782;0.000;0.000;2023-02-13T02:08:17;18.00;48.50
58993;DHT22;44782;0.000;0.000;2023-02-13T02:10:33;18.00;48.50
58993;DHT22;44782;0.000;0.000;2023-02-13T02:13:06;18.00;48.40
58993;DHT22;44782;0.000;0.000;2023-02-13T02:15:24;18.00;48.20
58993;DHT22;44782;0.000;0.000;2023-02-13T02:17:40;18.00;48.40
58993;DHT22;44782;0.000;0.000;2023-02-13T02:20:35;18.00;48.30
58993;DHT22;44782;0.000;0.000;2023-02-13T02:39:04;18.00;48.50
58993;DHT22;44782;0.000;0.000;2023-02-13T02:42:04;18.00;47.40
58993;DHT22;44782;0.000;0.000;2023-02-13T02:47:24;18.00;47.50
58993;DHT22;44782;0.000;0.000;2023-02-13T02:50:24;18.00;47.60
58993;DHT22;44782;0.000;0.000;2023-02-13T02:58:41;17.90;47.70
58993;DHT22;44782;0.000;0.000;2023-02-13T03:00:50;17.90;47.60
58993;DHT22;44782;0.000;0.000;2023-02-13T03:03:26;17.90;48.00
58993;DHT22;44782;0.000;0.000;2023-02-13T03:06:04;17.90;47.90
58993;DHT22;44782;0.000;0.000;2023-02-13T03:08:31;17.90;47.80
58993;DHT22;44782;0.000;0.000;2023-02-13T03:11:06;17.90;47.80
58993;DHT22;44782;0.000;0.000;2023-02-13T03:13:46;17.90;47.80
58993;DHT22;44782;0.000;0.000;2023-02-13T03:16:02;17.90;47.60
58993;DHT22;44782;0.000;0.000;2023-02-13T03:18:40;17.90;47.70
58993;DHT22;44782;0.000;0.000;2023-02-13T03:27:46;17.90;47.00
58993;DHT22;44782;0.000;0.000;2023-02-13T03:33:38;18.00;47.10
58993;DHT22;44782;0.000;0.000;2023-02-13T03:36:16;17.90;46.90
58993;DHT22;44782;0.000;0.000;2023-02-13T03:41:38;18.00;47.10
58993;DHT22;44782;0.000;0.000;2023-02-13T03:46:24;17.90;47.40
58993;DHT22;44782;0.000;0.000;2023-02-13T03:48:41;17.90;47.30
58993;DHT22;44782;0.000;0.000;2023-02-13T03:51:26;17.90;47.30
58993;DHT22;44782;0.000;0.000;2023-02-13T03:53:45;17.90;47.20
58993;DHT22;44782;0.000;0.000;2023-02-13T03:56:03;17.90;47.30
58993;DHT22;44782;0.000;0.000;2023-02-13T03:58:46;17.90;47.30
58993;DHT22;44782;0.000;0.000;2023-02-13T04:01:25;17.90;47.00
58993;DHT22;44782;0.000;0.000;2023-02-13T04:03:51;17.90;47.20
58993;DHT22;44782;0.000;0.000;2023-02-13T04:06:19;17.90;46.90
58993;DHT22;44782;0.000;0.000;2023-02-13T04:08:36;17.90;47.10
58993;DHT22;44782;0.000;0.000;2023-02-13T04:11:58;17.90;47.20
58993;DHT22;44782;0.000;0.000;2023-02-13T04:14:10;18.00;46.60
58993;DHT22;44782;0.000;0.000;2023-02-13T04:16:35;17.90;47.00
58993;DHT22;44782;0.000;0.000;2023-02-13T04:18:53;17.90;47.00
58993;DHT22;44782;0.000;0.000;2023-02-13T04:21:10;18.00;47.10
58993;DHT22;44782;0.000;0.000;2023-02-13T04:23:25;18.00;47.10
58993;DHT22;44782;0.000;0.000;2023-02-13T04:25:44;17.90;46.90
58993;DHT22;44782;0.000;0.000;2023-02-13T04:28:01;17.90;47.00
58993;DHT22;44782;0.000;0.000;2023-02-13T04:30:17;18.00;47.00
58993;DHT22;44782;0.000;0.000;2023-02-13T04:32:32;18.00;46.90
58993;DHT22;44782;0.000;0.000;2023-02-13T04:34:48;17.90;46.80
58993;DHT22;44782;0.000;0.000;2023-02-13T04:37:04;18.00;46.90
58993;DHT22;44782;0.000;0.000;2023-02-13T04:39:20;18.00;46.90
58993;DHT22;44782;0.000;0.000;2023-02-13T04:41:35;17.90;46.70
58993;DHT22;44782;0.000;0.000;2023-02-13T04:43:51;17.90;46.70
58993;DHT22;44782;0.000;0.000;2023-02-13T04:46:07;17.90;46.70
58993;DHT22;44782;0.000;0.000;2023-02-13T04:48:26;17.90;46.80
58993;DHT22;44782;0.000;0.000;2023-02-13T04:50:41;17.90;46.70
58993;DHT22;44782;0.000;0.000;2023-02-13T04:52:58;17.90;46.70
58993;DHT22;44782;0.000;0.000;2023-02-13T04:55:14;17.90;46.70
58993;DHT22;44782;0.000;0.000;2023-02-13T04:57:29;17.90;46.70
58993;DHT22;44782;0.000;0.000;2023-02-13T04:59:45;17.90;46.70
58993;DHT22;44782;0.000;0.000;2023-02-13T05:02:01;17.90;46.60
58993;DHT22;44782;0.000;0.000;2023-02-13T05:04:17;17.90;46.60
58993;DHT22;44782;0.000;0.000;2023-02-13T05:06:32;17.90;46.60
58993;DHT22;44782;0.000;0.000;2023-02-13T05:08:48;17.90;46.60
58993;DHT22;44782;0.000;0.000;2023-02-13T05:11:04;17.90;46.60
58993;DHT22;44782;0.000;0.000;2023-02-13T05:13:20;17.90;46.50
58993;DHT22;44782;0.000;0.000;2023-02-13T05:15:36;17.90;46.50
58993;DHT22;44782;0.000;0.000;2023-02-13T05:17:52;17.90;46.50
58993;DHT22;44782;0.000;0.000;2023-02-13T05:20:08;17.90;46.50
58993;DHT22;44782;0.000;0.000;2023-02-13T05:22:24;17.90;46.40
58993;DHT22;44782;0.000;0.000;2023-02-13T05:25:07;17.90;46.50
58993;DHT22;44782;0.000;0.000;2023-02-13T05:27:23;17.90;46.40
58993;DHT22;44782;0.000;0.000;2023-02-13T05:29:38;17.90;46.40
58993;DHT22;44782;0.000;0.000;2023-02-13T05:31:56;17.90;46.30
58993;DHT22;44782;0.000;0.000;2023-02-13T05:34:15;18.00;46.40
58993;DHT22;44782;0.000;0.000;2023-02-13T05:36:31;17.90;46.20
58993;DHT22;44782;0.000;0.000;2023-02-13T05:38:46;17.90;46.20
58993;DHT22;44782;0.000;0.000;2023-02-13T05:41:02;18.00;46.30
58993;DHT22;44782;0.000;0.000;2023-02-13T05:43:18;17.90;46.10
58993;DHT22;44782;0.000;0.000;2023-02-13T05:45:34;18.00;46.30
58993;DHT22;44782;0.000;0.000;2023-02-13T05:47:50;17.90;46.10
58993;DHT22;44782;0.000;0.000;2023-02-13T05:50:06;17.80;46.10
58993;DHT22;44782;0.000;0.000;2023-02-13T05:52:22;17.90;46.10
58993;DHT22;44782;0.000;0.000;2023-02-13T05:54:38;17.90;46.10
58993;DHT22;44782;0.000;0.000;2023-02-13T05:56:54;17.90;46.10
58993;DHT22;44782;0.000;0.000;2023-02-13T05:59:10;17.90;46.10
58993;DHT22;44782;0.000;0.000;2023-02-13T06:01:25;17.90;46.10
58993;DHT22;44782;0.000;0.000;2023-02-13T06:03:41;17.90;46.10
58993;DHT22;44782;0.000;0.000;2023-02-13T06:05:58;17.90;46.10
58993;DHT22;44782;0.000;0.000;2023-02-13T06:08:13;17.90;46.10
58993;DHT22;44782;0.000;0.000;2023-02-13T06:10:29;17.90;46.10
58993;DHT22;44782;0.000;0.000;2023-02-13T06:12:45;17.90;46.10
58993;DHT22;44782;0.000;0.000;2023-02-13T06:15:00;17.90;46.00
58993;DHT22;44782;0.000;0.000;2023-02-13T06:17:19;17.90;46.00
58993;DHT22;44782;0.000;0.000;2023-02-13T06:19:34;17.90;46.00
58993;DHT22;44782;0.000;0.000;2023-02-13T06:21:50;17.90;46.00
58993;DHT22;44782;0.000;0.000;2023-02-13T06:24:07;17.90;46.00
58993;DHT22;44782;0.000;0.000;2023-02-13T06:26:22;17.90;45.90
58993;DHT22;44782;0.000;0.000;2023-02-13T06:28:38;17.90;45.90
58993;DHT22;44782;0.000;0.000;2023-02-13T06:30:54;17.90;45.90
58993;DHT22;44782;0.000;0.000;2023-02-13T06:33:09;17.90;45.90
58993;DHT22;44782;0.000;0.000;2023-02-13T06:35:25;17.90;45.90
58993;DHT22;44782;0.000;0.000;2023-02-13T06:37:41;17.90;45.80
58993;DHT22;44782;0.000;0.000;2023-02-13T06:40:00;17.90;45.80
58993;DHT22;44782;0.000;0.000;2023-02-13T06:42:16;17.90;45.80
58993;DHT22;44782;0.000;0.000;2023-02-13T06:44:32;17.90;45.80
58993;DHT22;44782;0.000;0.000;2023-02-13T06:46:48;17.90;45.70
58993;DHT22;44782;0.000;0.000;2023-02-13T06:49:04;17.90;45.70
58993;DHT22;44782;0.000;0.000;2023-02-13T06:51:19;17.90;45.70
58993;DHT22;44782;0.000;0.000;2023-02-13T06:53:35;17.90;45.70
58993;DHT22;44782;0.000;0.000;2023-02-13T06:55:51;17.90;45.70
58993;DHT22;44782;0.000;0.000;2023-02-13T06:58:08;17.90;45.60
58993;DHT22;44782;0.000;0.000;2023-02-13T07:00:24;17.90;45.60
58993;DHT22;44782;0.000;0.000;2023-02-13T07:02:42;17.90;45.60
58993;DHT22;44782;0.000;0.000;2023-02-13T07:04:58;17.90;45.60
58993;DHT22;44782;0.000;0.000;2023-02-13T07:07:14;17.90;45.60
58993;DHT22;44782;0.000;0.000;2023-02-13T07:09:31;17.90;45.60
58993;DHT22;44782;0.000;0.000;2023-02-13T07:11:47;17.90;45.50
58993;DHT22;44782;0.000;0.000;2023-02-13T07:14:05;17.90;45.60
58993;DHT22;44782;0.000;0.000;2023-02-13T07:16:21;17.90;45.60
58993;DHT22;44782;0.000;0.000;2023-02-13T07:18:38;17.90;45.60
58993;DHT22;44782;0.000;0.000;2023-02-13T07:20:54;17.90;45.60
58993;DHT22;44782;0.000;0.000;2023-02-13T07:23:10;17.90;45.60
58993;DHT22;44782;0.000;0.000;2023-02-13T07:25:26;17.90;45.70
58993;DHT22;44782;0.000;0.000;2023-02-13T07:27:42;17.80;45.60
58993;DHT22;44782;0.000;0.000;2023-02-13T07:29:58;17.80;45.60
58993;DHT22;44782;0.000;0.000;2023-02-13T07:32:14;17.80;45.60
58993;DHT22;44782;0.000;0.000;2023-02-13T07:34:29;17.80;45.60
58993;DHT22;44782;0.000;0.000;2023-02-13T07:36:45;17.80;45.50
58993;DHT22;44782;0.000;0.000;2023-02-13T07:39:01;17.80;45.60
58993;DHT22;44782;0.000;0.000;2023-02-13T07:41:16;17.80;45.50
58993;DHT22;44782;0.000;0.000;2023-02-13T07:43:32;17.80;45.50
58993;DHT22;44782;0.000;0.000;2023-02-13T07:45:47;17.80;45.50
58993;DHT22;44782;0.000;0.000;2023-02-13T07:48:03;17.90;45.50
58993;DHT22;44782;0.000;0.000;2023-02-13T07:50:19;17.90;45.60
58993;DHT22;44782;0.000;0.000;2023-02-13T07:52:34;17.90;45.80
58993;DHT22;44782;0.000;0.000;2023-02-13T07:54:52;17.90;45.60
58993;DHT22;44782;0.000;0.000;2023-02-13T07:57:07;17.90;45.60
58993;DHT22;44782;0.000;0.000;2023-02-13T07:59:23;17.90;45.60
58993;DHT22;44782;0.000;0.000;2023-02-13T08:01:39;17.90;45.60
58993;DHT22;44782;0.000;0.000;2023-02-13T08:03:55;17.90;45.60
58993;DHT22;44782;0.000;0.000;2023-02-13T08:06:11;17.80;45.50
58993;DHT22;44782;0.000;0.000;2023-02-13T08:08:26;17.80;45.50
58993;DHT22;44782;0.000;0.000;2023-02-13T08:10:42;17.80;45.60
58993;DHT22;44782;0.000;0.000;2023-02-13T08:13:17;17.80;45.70
58993;DHT22;44782;0.000;0.000;2023-02-13T08:15:33;17.70;45.70
58993;DHT22;44782;0.000;0.000;2023-02-13T08:17:48;17.70;45.70
58993;DHT22;44782;0.000;0.000;2023-02-13T08:20:05;17.70;45.70
58993;DHT22;44782;0.000;0.000;2023-02-13T08:22:23;17.70;45.70
58993;DHT22;44782;0.000;0.000;2023-02-13T08:24:38;17.70;45.80
58993;DHT22;44782;0.000;0.000;2023-02-13T08:26:55;17.70;45.70
58993;DHT22;44782;0.000;0.000;2023-02-13T08:29:11;17.60;45.70
58993;DHT22;44782;0.000;0.000;2023-02-13T08:31:26;17.60;45.70
58993;DHT22;44782;0.000;0.000;2023-02-13T08:33:42;17.60;45.70
58993;DHT22;44782;0.000;0.000;2023-02-13T08:35:58;17.60;45.80
58993;DHT22;44782;0.000;0.000;2023-02-13T08:38:13;17.50;45.70
58993;DHT22;44782;0.000;0.000;2023-02-13T08:40:29;17.50;45.70
58993;DHT22;44782;0.000;0.000;2023-02-13T08:42:45;17.50;45.70
58993;DHT22;44782;0.000;0.000;2023-02-13T08:45:01;17.50;46.10
58993;DHT22;44782;0.000;0.000;2023-02-13T08:47:16;17.40;45.60
58993;DHT22;44782;0.000;0.000;2023-02-13T08:49:32;17.40;45.70
58993;DHT22;44782;0.000;0.000;2023-02-13T08:51:49;17.40;45.70
58993;DHT22;44782;0.000;0.000;2023-02-13T08:54:04;17.40;45.70
58993;DHT22;44782;0.000;0.000;2023-02-13T08:56:20;17.40;45.70
58993;DHT22;44782;0.000;0.000;2023-02-13T08:58:36;17.30;45.60
58993;DHT22;44782;0.000;0.000;2023-02-13T09:00:51;17.30;45.60
58993;DHT22;44782;0.000;0.000;2023-02-13T09:03:07;17.30;45.60
58993;DHT22;44782;0.000;0.000;2023-02-13T09:05:23;17.30;45.70
58993;DHT22;44782;0.000;0.000;2023-02-13T09:07:38;17.20;45.60
58993;DHT22;44782;0.000;0.000;2023-02-13T09:09:54;17.20;45.60
58993;DHT22;44782;0.000;0.000;2023-02-13T09:12:10;17.20;45.60
58993;DHT22;44782;0.000;0.000;2023-02-13T09:14:25;17.20;45.60
58993;DHT22;44782;0.000;0.000;2023-02-13T09:16:41;17.20;45.60
58993;DHT22;44782;0.000;0.000;2023-02-13T09:18:57;17.10;45.60
58993;DHT22;44782;0.000;0.000;2023-02-13T09:21:13;17.10;45.60
58993;DHT22;44782;0.000;0.000;2023-02-13T09:23:34;17.10;45.60
58993;DHT22;44782;0.000;0.000;2023-02-13T09:25:50;17.10;45.50
58993;DHT22;44782;0.000;0.000;2023-02-13T09:28:05;17.00;45.60
58993;DHT22;44782;0.000;0.000;2023-02-13T09:30:21;17.00;45.60
58993;DHT22;44782;0.000;0.000;2023-02-13T09:32:40;17.00;45.70
58993;DHT22;44782;0.000;0.000;2023-02-13T09:34:56;17.00;45.60
58993;DHT22;44782;0.000;0.000;2023-02-13T09:37:12;16.90;45.60
58993;DHT22;44782;0.000;0.000;2023-02-13T09:39:27;16.90;45.60
58993;DHT22;44782;0.000;0.000;2023-02-13T09:41:44;16.90;45.70
58993;DHT22;44782;0.000;0.000;2023-02-13T09:44:28;16.90;45.70
58993;DHT22;44782;0.000;0.000;2023-02-13T09:46:53;16.90;45.40
58993;DHT22;44782;0.000;0.000;2023-02-13T09:49:14;16.80;45.70
58993;DHT22;44782;0.000;0.000;2023-02-13T09:51:31;16.80;45.60
58993;DHT22;44782;0.000;0.000;2023-02-13T09:53:55;16.80;45.70
58993;DHT22;44782;0.000;0.000;2023-02-13T09:56:15;16.80;45.60
58993;DHT22;44782;0.000;0.000;2023-02-13T09:58:56;16.70;45.70
58993;DHT22;44782;0.000;0.000;2023-02-13T10:01:29;16.70;45.60
58993;DHT22;44782;0.000;0.000;2023-02-13T10:04:14;16.70;45.60
58993;DHT22;44782;0.000;0.000;2023-02-13T10:06:39;16.70;45.50
58993;DHT22;44782;0.000;0.000;2023-02-13T10:09:20;16.70;45.80
58993;DHT22;44782;0.000;0.000;2023-02-13T10:16:24;16.60;45.70
58993;DHT22;44782;0.000;0.000;2023-02-13T10:19:04;16.60;45.80
58993;DHT22;44782;0.000;0.000;2023-02-13T10:21:26;16.60;45.60
58993;DHT22;44782;0.000;0.000;2023-02-13T10:23:47;16.60;45.90
58993;DHT22;44782;0.000;0.000;2023-02-13T10:26:07;16.60;45.90
58993;DHT22;44782;0.000;0.000;2023-02-13T10:31:14;16.50;45.90
58993;DHT22;44782;0.000;0.000;2023-02-13T10:36:38;16.50;45.80
58993;DHT22;44782;0.000;0.000;2023-02-13T10:38:56;16.40;45.90
58993;DHT22;44782;0.000;0.000;2023-02-13T10:41:23;16.40;46.00
58993;DHT22;44782;0.000;0.000;2023-02-13T10:51:41;16.40;46.10
58993;DHT22;44782;0.000;0.000;2023-02-13T10:56:52;16.30;45.90
58993;DHT22;44782;0.000;0.000;2023-02-13T11:02:10;16.30;45.90
58993;DHT22;44782;0.000;0.000;2023-02-13T11:04:32;16.30;46.10
58993;DHT22;44782;0.000;0.000;2023-02-13T11:06:58;16.30;46.20
58993;DHT22;44782;0.000;0.000;2023-02-13T11:09:14;16.20;46.10
58993;DHT22;44782;0.000;0.000;2023-02-13T11:11:37;16.30;46.20
58993;DHT22;44782;0.000;0.000;2023-02-13T11:16:22;16.20;46.00
58993;DHT22;44782;0.000;0.000;2023-02-13T11:18:47;16.20;46.10
58993;DHT22;44782;0.000;0.000;2023-02-13T11:21:08;16.20;46.10
58993;DHT22;44782;0.000;0.000;2023-02-13T11:28:20;16.20;46.20
58993;DHT22;44782;0.000;0.000;2023-02-13T11:30:37;16.10;46.20
58993;DHT22;44782;0.000;0.000;2023-02-13T11:35:33;16.20;46.10
58993;DHT22;44782;0.000;0.000;2023-02-13T11:40:30;16.20;46.40
58993;DHT22;44782;0.000;0.000;2023-02-13T11:42:48;16.20;46.70
58993;DHT22;44782;0.000;0.000;2023-02-13T11:45:22;16.20;46.90
58993;DHT22;44782;0.000;0.000;2023-02-13T11:47:42;16.20;47.20
58993;DHT22;44782;0.000;0.000;2023-02-13T11:49:57;16.20;47.70
58993;DHT22;44782;0.000;0.000;2023-02-13T11:52:27;16.20;47.70
58993;DHT22;44782;0.000;0.000;2023-02-13T11:54:44;16.20;48.30
58993;DHT22;44782;0.000;0.000;2023-02-13T11:57:16;16.20;48.20
58993;DHT22;44782;0.000;0.000;2023-02-13T11:59:43;16.20;48.30
58993;DHT22;44782;0.000;0.000;2023-02-13T12:02:15;16.20;48.60
58993;DHT22;44782;0.000;0.000;2023-02-13T12:04:31;16.20;48.40
58993;DHT22;44782;0.000;0.000;2023-02-13T12:07:10;16.20;48.40
58993;DHT22;44782;0.000;0.000;2023-02-13T12:09:27;16.30;48.90
58993;DHT22;44782;0.000;0.000;2023-02-13T12:11:50;16.30;48.70
58993;DHT22;44782;0.000;0.000;2023-02-13T12:14:09;16.30;49.00
58993;DHT22;44782;0.000;0.000;2023-02-13T12:16:39;16.30;48.90
58993;DHT22;44782;0.000;0.000;2023-02-13T12:18:59;16.30;49.30
58993;DHT22;44782;0.000;0.000;2023-02-13T12:21:51;16.30;49.10
58993;DHT22;44782;0.000;0.000;2023-02-13T12:27:16;16.30;49.70
58993;DHT22;44782;0.000;0.000;2023-02-13T12:42:54;16.30;49.60
58993;DHT22;44782;0.000;0.000;2023-02-13T12:50:54;16.30;49.80
58993;DHT22;44782;0.000;0.000;2023-02-13T13:03:36;16.30;49.40
58993;DHT22;44782;0.000;0.000;2023-02-13T13:06:12;16.30;49.30
58993;DHT22;44782;0.000;0.000;2023-02-13T13:23:28;16.20;49.00
58993;DHT22;44782;0.000;0.000;2023-02-13T13:28:14;16.20;49.20
58993;DHT22;44782;0.000;0.000;2023-02-13T13:30:34;16.20;49.20
58993;DHT22;44782;0.000;0.000;2023-02-13T13:33:22;16.20;49.20
58993;DHT22;44782;0.000;0.000;2023-02-13T13:35:43;16.20;49.10
58993;DHT22;44782;0.000;0.000;2023-02-13T13:38:04;16.20;49.10
58993;DHT22;44782;0.000;0.000;2023-02-13T13:42:51;16.20;49.20
58993;DHT22;44782;0.000;0.000;2023-02-13T13:45:49;16.20;49.20
58993;DHT22;44782;0.000;0.000;2023-02-13T13:50:46;16.20;49.60
58993;DHT22;44782;0.000;0.000;2023-02-13T13:53:14;16.20;49.50
58993;DHT22;44782;0.000;0.000;2023-02-13T13:58:01;16.20;49.80
58993;DHT22;44782;0.000;0.000;2023-02-13T14:00:23;16.20;49.60
58993;DHT22;44782;0.000;0.000;2023-02-13T14:02:51;16.20;49.80
58993;DHT22;44782;0.000;0.000;2023-02-13T14:05:31;16.20;49.90
58993;DHT22;44782;0.000;0.000;2023-02-13T14:07:50;16.20;49.90
58993;DHT22;44782;0.000;0.000;2023-02-13T14:12:58;16.20;50.00
58993;DHT22;44782;0.000;0.000;2023-02-13T14:17:54;16.20;50.10
58993;DHT22;44782;0.000;0.000;2023-02-13T14:20:35;16.10;49.90
58993;DHT22;44782;0.000;0.000;2023-02-13T14:22:51;16.20;50.30
58993;DHT22;44782;0.000;0.000;2023-02-13T14:25:21;16.10;50.00
58993;DHT22;44782;0.000;0.000;2023-02-13T14:27:38;16.20;50.20
58993;DHT22;44782;0.000;0.000;2023-02-13T14:29:55;16.10;50.00
58993;DHT22;44782;0.000;0.000;2023-02-13T14:35:15;16.20;50.30
58993;DHT22;44782;0.000;0.000;2023-02-13T14:37:36;16.10;50.30
58993;DHT22;44782;0.000;0.000;2023-02-13T14:42:27;16.20;50.60
58993;DHT22;44782;0.000;0.000;2023-02-13T14:44:44;16.20;50.40
58993;DHT22;44782;0.000;0.000;2023-02-13T14:47:21;16.10;50.40
58993;DHT22;44782;0.000;0.000;2023-02-13T14:49:41;16.20;50.70
58993;DHT22;44782;0.000;0.000;2023-02-13T14:52:25;16.20;50.50
58993;DHT22;44782;0.000;0.000;2023-02-13T14:54:45;16.20;50.50
58993;DHT22;44782;0.000;0.000;2023-02-13T14:57:26;16.10;50.60
58993;DHT22;44782;0.000;0.000;2023-02-13T14:59:47;16.10;50.50
58993;DHT22;44782;0.000;0.000;2023-02-13T15:02:23;16.10;50.60
58993;DHT22;44782;0.000;0.000;2023-02-13T15:04:54;16.10;50.70
58993;DHT22;44782;0.000;0.000;2023-02-13T15:07:18;16.10;50.80
58993;DHT22;44782;0.000;0.000;2023-02-13T15:09:39;16.10;50.80
58993;DHT22;44782;0.000;0.000;2023-02-13T15:11:56;16.10;50.80
58993;DHT22;44782;0.000;0.000;2023-02-13T15:14:23;16.10;50.80
58993;DHT22;44782;0.000;0.000;2023-02-13T15:16:40;16.20;50.90
58993;DHT22;44782;0.000;0.000;2023-02-13T15:18:56;16.10;50.80
58993;DHT22;44782;0.000;0.000;2023-02-13T15:21:15;16.10;50.70
58993;DHT22;44782;0.000;0.000;2023-02-13T15:23:32;16.10;50.80
58993;DHT22;44782;0.000;0.000;2023-02-13T15:25:59;16.10;50.70
58993;DHT22;44782;0.000;0.000;2023-02-13T15:28:19;16.10;51.30
58993;DHT22;44782;0.000;0.000;2023-02-13T15:30:36;16.10;50.90
58993;DHT22;44782;0.000;0.000;2023-02-13T15:32:58;16.10;50.90
58993;DHT22;44782;0.000;0.000;2023-02-13T15:35:21;16.10;50.90
58993;DHT22;44782;0.000;0.000;2023-02-13T15:37:37;16.10;50.80
58993;DHT22;44782;0.000;0.000;2023-02-13T15:39:52;16.10;50.90
58993;DHT22;44782;0.000;0.000;2023-02-13T15:42:09;16.10;50.90
58993;DHT22;44782;0.000;0.000;2023-02-13T15:44:34;16.10;51.00
58993;DHT22;44782;0.000;0.000;2023-02-13T15:46:53;16.10;51.10
58993;DHT22;44782;0.000;0.000;2023-02-13T15:49:15;16.10;51.00
58993;DHT22;44782;0.000;0.000;2023-02-13T15:51:32;16.10;51.10
58993;DHT22;44782;0.000;0.000;2023-02-13T15:53:57;16.10;51.00
58993;DHT22;44782;0.000;0.000;2023-02-13T15:56:13;16.10;51.20
58993;DHT22;44782;0.000;0.000;2023-02-13T15:58:33;16.10;51.10
58993;DHT22;44782;0.000;0.000;2023-02-13T16:00:49;16.10;51.20
58993;DHT22;44782;0.000;0.000;2023-02-13T16:03:06;16.10;51.10
58993;DHT22;44782;0.000;0.000;2023-02-13T16:05:25;16.10;51.10
58993;DHT22;44782;0.000;0.000;2023-02-13T16:10:23;16.10;51.30
58993;DHT22;44782;0.000;0.000;2023-02-13T16:12:47;16.10;51.30
58993;DHT22;44782;0.000;0.000;2023-02-13T16:15:04;16.10;51.30
58993;DHT22;44782;0.000;0.000;2023-02-13T16:17:35;16.10;51.20
58993;DHT22;44782;0.000;0.000;2023-02-13T16:27:43;16.10;51.50
58993;DHT22;44782;0.000;0.000;2023-02-13T16:30:03;16.10;51.40
58993;DHT22;44782;0.000;0.000;2023-02-13T16:32:34;16.00;51.40
58993;DHT22;44782;0.000;0.000;2023-02-13T16:34:53;16.10;51.50
58993;DHT22;44782;0.000;0.000;2023-02-13T16:37:25;16.00;51.40
58993;DHT22;44782;0.000;0.000;2023-02-13T16:39:41;16.10;51.60
58993;DHT22;44782;0.000;0.000;2023-02-13T16:41:58;16.00;51.50
58993;DHT22;44782;0.000;0.000;2023-02-13T16:44:40;16.10;51.50
58993;DHT22;44782;0.000;0.000;2023-02-13T16:46:57;16.10;51.70
58993;DHT22;44782;0.000;0.000;2023-02-13T16:49:18;16.00;51.60
58993;DHT22;44782;0.000;0.000;2023-02-13T16:59:57;16.00;51.80
58993;DHT22;44782;0.000;0.000;2023-02-13T17:04:29;16.00;51.80
58993;DHT22;44782;0.000;0.000;2023-02-13T17:06:45;15.90;51.70
58993;DHT22;44782;0.000;0.000;2023-02-13T17:09:01;15.90;51.70
58993;DHT22;44782;0.000;0.000;2023-02-13T17:11:17;15.90;51.70
58993;DHT22;44782;0.000;0.000;2023-02-13T17:13:34;15.90;51.70
58993;DHT22;44782;0.000;0.000;2023-02-13T17:15:49;15.90;51.80
58993;DHT22;44782;0.000;0.000;2023-02-13T17:18:06;15.90;51.80
58993;DHT22;44782;0.000;0.000;2023-02-13T17:20:28;15.90;51.80
58993;DHT22;44782;0.000;0.000;2023-02-13T17:22:46;15.90;51.80
58993;DHT22;44782;0.000;0.000;2023-02-13T17:25:06;15.90;51.90
58993;DHT22;44782;0.000;0.000;2023-02-13T17:27:22;15.90;51.80
58993;DHT22;44782;0.000;0.000;2023-02-13T17:29:37;15.90;51.90
58993;DHT22;44782;0.000;0.000;2023-02-13T17:31:54;15.90;51.90
58993;DHT22;44782;0.000;0.000;2023-02-13T17:34:11;15.90;51.90
58993;DHT22;44782;0.000;0.000;2023-02-13T17:36:26;15.90;51.90
58993;DHT22;44782;0.000;0.000;2023-02-13T17:38:42;15.90;51.90
58993;DHT22;44782;0.000;0.000;2023-02-13T17:40:58;15.90;52.00
58993;DHT22;44782;0.000;0.000;2023-02-13T17:43:16;15.90;52.00
58993;DHT22;44782;0.000;0.000;2023-02-13T17:45:33;15.90;52.00
58993;DHT22;44782;0.000;0.000;2023-02-13T17:47:49;15.90;52.00